createdAt,value
2023-02-11T00:02:20.976Z,6.80
2023-02-11T00:08:17.071Z,6.80
2023-02-11T00:14:11.543Z,6.80
2023-02-11T00:20:30.021Z,6.70
2023-02-11T00:26:48.368Z,6.70
2023-02-11T00:32:43.727Z,6.60
2023-02-11T00:38:38.211Z,6.60
2023-02-11T00:44:56.689Z,6.60
2023-02-11T00:51:15.106Z,6.70
2023-02-11T00:57:09.513Z,6.60
2023-02-11T01:03:04.104Z,6.50
2023-02-11T01:09:22.679Z,6.60
2023-02-11T01:15:41.264Z,6.60
2023-02-11T01:21:35.739Z,6.50
2023-02-11T01:27:31.537Z,6.60
2023-02-11T01:33:51.043Z,6.70
2023-02-11T01:40:12.284Z,6.80
2023-02-11T01:46:26.988Z,6.80
2023-02-11T01:52:34.459Z,6.90
2023-02-11T01:59:10.472Z,6.90
2023-02-11T02:05:48.920Z,7.00
2023-02-11T02:11:43.502Z,7.00
2023-02-11T02:17:44.258Z,7.10
2023-02-11T02:24:27.677Z,7.10
2023-02-11T02:30:52.397Z,7.20
2023-02-11T02:36:54.054Z,7.20
2023-02-11T02:42:48.510Z,7.20
2023-02-11T02:49:11.189Z,7.30
2023-02-11T02:55:49.811Z,7.40
2023-02-11T03:01:45.084Z,7.40
2023-02-11T03:07:53.698Z,7.40
2023-02-11T03:14:13.923Z,7.50
2023-02-11T03:20:33.427Z,7.50
2023-02-11T03:26:31.803Z,7.60
2023-02-11T03:32:29.212Z,7.60
2023-02-11T03:38:49.110Z,7.60
2023-02-11T03:45:08.840Z,7.60
2023-02-11T03:51:03.727Z,7.60
2023-02-11T03:56:59.610Z,7.60
2023-02-11T04:03:30.159Z,7.60
2023-02-11T04:09:48.600Z,7.60
2023-02-11T04:15:43.012Z,7.60
2023-02-11T04:21:37.473Z,7.50
2023-02-11T04:27:56.006Z,7.50
2023-02-11T04:34:14.437Z,7.50
2023-02-11T04:40:09.122Z,7.50
2023-02-11T04:46:03.694Z,7.50
2023-02-11T04:52:22.178Z,7.50
2023-02-11T04:58:40.572Z,7.60
2023-02-11T05:04:35.016Z,7.50
2023-02-11T05:10:29.702Z,7.50
2023-02-11T05:16:48.238Z,7.60
2023-02-11T05:23:06.804Z,7.60
2023-02-11T05:29:01.177Z,7.60
2023-02-11T05:34:56.749Z,7.50
2023-02-11T05:41:15.279Z,7.60
2023-02-11T05:47:34.708Z,7.60
2023-02-11T05:53:29.050Z,7.50
2023-02-11T05:59:23.526Z,7.50
2023-02-11T06:05:54.060Z,7.40
2023-02-11T06:12:12.432Z,7.40
2023-02-11T06:18:08.080Z,7.40
2023-02-11T06:24:02.540Z,7.30
2023-02-11T06:30:21.122Z,7.30
2023-02-11T06:36:40.096Z,7.30
2023-02-11T06:42:36.257Z,7.30
2023-02-11T06:48:30.812Z,7.20
2023-02-11T06:54:50.313Z,7.20
2023-02-11T07:01:09.385Z,7.30
2023-02-11T07:07:03.763Z,7.30
2023-02-11T07:13:01.004Z,7.30
2023-02-11T07:19:19.462Z,7.50
2023-02-11T07:25:37.819Z,7.60
2023-02-11T07:31:32.401Z,7.60
2023-02-11T07:37:26.985Z,7.60
2023-02-11T07:43:45.606Z,7.70
2023-02-11T07:50:04.047Z,7.80
2023-02-11T07:55:59.410Z,7.80
2023-02-11T08:01:54.389Z,7.90
2023-02-11T08:08:28.046Z,8.00
2023-02-11T08:14:46.423Z,8.00
2023-02-11T08:20:40.936Z,8.10
2023-02-11T08:26:35.598Z,8.10
2023-02-11T08:32:54.090Z,8.20
2023-02-11T08:39:19.748Z,8.20
2023-02-11T08:45:14.770Z,8.20
2023-02-11T08:51:10.481Z,8.20
2023-02-11T08:57:28.987Z,8.30
2023-02-11T09:03:47.494Z,8.30
2023-02-11T09:09:41.877Z,8.30
2023-02-11T09:15:36.523Z,8.40
2023-02-11T09:21:54.980Z,8.50
2023-02-11T09:28:13.416Z,8.50
2023-02-11T09:34:07.908Z,8.50
2023-02-11T09:40:02.362Z,8.50
2023-02-11T09:46:21.230Z,8.60
2023-02-11T09:52:39.640Z,8.60
2023-02-11T09:58:37.253Z,8.60
2023-02-11T10:04:49.988Z,8.70
2023-02-11T10:11:47.793Z,8.70
2023-02-11T10:18:24.958Z,8.80
2023-02-11T10:24:19.343Z,8.70
2023-02-11T10:30:36.337Z,8.70
2023-02-11T10:36:54.874Z,8.90
2023-02-11T10:43:16.793Z,8.80
2023-02-11T10:49:11.172Z,8.80
2023-02-11T10:55:15.111Z,8.80
2023-02-11T11:02:03.004Z,9.00
2023-02-11T11:08:21.467Z,9.10
2023-02-11T11:14:18.827Z,9.10
2023-02-11T11:20:16.518Z,9.20
2023-02-11T11:26:42.845Z,9.00
2023-02-11T11:33:01.233Z,9.00
2023-02-11T11:38:56.786Z,9.00
2023-02-11T11:45:10.240Z,8.90
2023-02-11T11:51:28.737Z,9.00
2023-02-11T11:57:47.162Z,9.20
2023-02-11T12:03:41.545Z,9.10
2023-02-11T12:09:57.276Z,9.00
2023-02-11T12:16:30.363Z,9.10
2023-02-11T12:23:07.649Z,9.20
2023-02-11T12:29:18.543Z,9.10
2023-02-11T12:35:31.240Z,9.10
2023-02-11T12:42:31.091Z,9.20
2023-02-11T12:49:20.148Z,9.20
2023-02-11T12:55:22.733Z,9.20
2023-02-11T13:01:29.659Z,9.20
2023-02-11T13:07:48.243Z,9.40
2023-02-11T13:14:09.689Z,9.40
2023-02-11T13:20:14.311Z,9.40
2023-02-11T13:26:32.470Z,9.50
2023-02-11T13:32:54.061Z,9.60
2023-02-11T13:39:21.349Z,9.60
2023-02-11T13:45:22.558Z,9.60
2023-02-11T13:51:17.889Z,9.70
2023-02-11T13:57:38.064Z,9.70
2023-02-11T14:04:25.504Z,9.70
2023-02-11T14:10:38.707Z,9.70
2023-02-11T14:16:38.255Z,9.70
2023-02-11T14:23:21.066Z,9.80
2023-02-11T14:29:51.759Z,9.80
2023-02-11T14:35:52.137Z,9.70
2023-02-11T14:41:47.321Z,9.70
2023-02-11T14:48:15.441Z,9.70
2023-02-11T14:54:33.864Z,9.70
2023-02-11T15:00:28.422Z,9.60
2023-02-11T15:06:28.370Z,9.60
2023-02-11T15:12:49.879Z,9.50
2023-02-11T15:19:09.181Z,9.60
2023-02-11T15:25:16.307Z,9.50
2023-02-11T15:31:17.532Z,9.40
2023-02-11T15:37:36.131Z,9.40
2023-02-11T15:43:54.546Z,9.40
2023-02-11T15:49:49.225Z,9.40
2023-02-11T15:55:43.717Z,9.40
2023-02-11T16:03:53.159Z,9.40
2023-02-11T16:10:18.684Z,9.40
2023-02-11T16:16:23.649Z,9.30
2023-02-11T16:22:27.740Z,9.20
2023-02-11T16:29:11.946Z,9.30
2023-02-11T16:35:30.502Z,9.20
2023-02-11T16:41:24.921Z,9.10
2023-02-11T16:47:24.773Z,9.10
2023-02-11T16:53:43.237Z,9.20
2023-02-11T17:00:01.668Z,9.10
2023-02-11T17:05:56.167Z,9.10
2023-02-11T17:11:50.756Z,9.00
2023-02-11T17:18:10.687Z,9.10
2023-02-11T17:24:29.067Z,9.00
2023-02-11T17:30:23.499Z,9.00
2023-02-11T17:36:17.978Z,9.00
2023-02-11T17:42:36.539Z,9.10
2023-02-11T17:48:55.493Z,9.10
2023-02-11T17:54:51.467Z,9.00
2023-02-11T18:00:45.995Z,9.00
2023-02-11T18:07:04.612Z,9.10
2023-02-11T18:13:23.140Z,9.00
2023-02-11T18:19:17.534Z,9.00
2023-02-11T18:25:14.622Z,9.00
2023-02-11T18:31:45.138Z,9.00
2023-02-11T18:38:04.555Z,9.10
2023-02-11T18:43:58.922Z,9.00
2023-02-11T18:49:53.429Z,9.00
2023-02-11T18:56:13.879Z,9.00
2023-02-11T19:02:32.278Z,9.00
2023-02-11T19:08:26.667Z,9.10
2023-02-11T19:14:23.350Z,9.10
2023-02-11T19:20:45.033Z,9.20
2023-02-11T19:27:03.756Z,9.20
2023-02-11T19:32:58.387Z,9.10
2023-02-11T19:38:52.863Z,9.10
2023-02-11T19:45:11.715Z,9.20
2023-02-11T19:51:30.228Z,9.10
2023-02-11T19:57:24.604Z,9.10
2023-02-11T20:03:19.077Z,9.10
2023-02-11T20:09:37.625Z,9.10
2023-02-11T20:15:56.086Z,9.00
2023-02-11T20:21:55.522Z,9.00
2023-02-11T20:27:50.036Z,9.00
2023-02-11T20:34:21.977Z,9.00
2023-02-11T20:40:40.334Z,9.00
2023-02-11T20:46:34.846Z,9.00
2023-02-11T20:52:29.390Z,9.10
2023-02-11T20:58:47.958Z,9.10
2023-02-11T21:05:06.546Z,9.10
2023-02-11T21:11:01.942Z,9.10
2023-02-11T21:16:56.508Z,9.10
2023-02-11T21:23:15.021Z,9.10
2023-02-11T21:29:36.677Z,9.10
2023-02-11T21:35:35.189Z,9.10
2023-02-11T21:41:29.821Z,9.00
2023-02-11T21:47:48.365Z,9.10
2023-02-11T21:54:06.729Z,9.10
2023-02-11T22:00:01.186Z,9.10
2023-02-11T22:05:55.997Z,9.00
2023-02-11T22:12:14.700Z,9.00
2023-02-11T22:18:35.161Z,9.00
2023-02-11T22:24:29.531Z,9.00
2023-02-11T22:30:25.056Z,8.90
2023-02-11T22:36:55.530Z,8.90
2023-02-11T22:43:14.888Z,9.00
2023-02-11T22:49:09.654Z,8.80
2023-02-11T22:55:04.419Z,8.80
2023-02-11T23:01:22.928Z,8.90
2023-02-11T23:07:41.305Z,8.80
2023-02-11T23:13:36.079Z,8.90
2023-02-11T23:19:30.540Z,8.90
2023-02-11T23:25:49.041Z,8.80
2023-02-11T23:32:07.451Z,8.80
2023-02-11T23:38:03.101Z,8.80
2023-02-11T23:43:57.938Z,8.70
2023-02-11T23:50:16.573Z,8.70
2023-02-11T23:56:36.940Z,8.70
